Time;durP1;ratioP1;P1;durP2;ratioP2;P2;SDS_P1;SDS_P2;PMS_P1;PMS_P2;Temp;Humidity;BMP_temperature;BMP_pressure;BME280_temperature;BME280_humidity;BME280_pressure;Samples;Min_cycle;Max_cycle;Signal;HPM_P1;HPM_P2
2022/06/14 00:01:23;;;;;;;19.10;9.27;;;;;;;37.74;43.68;101120.91;4978828;28;20424;-73
2022/06/14 00:03:49;;;;;;;22.80;10.27;;;;;;;37.72;44.04;101111.47;4978675;28;20471;-74
2022/06/14 00:06:22;;;;;;;17.40;9.20;;;;;;;37.84;43.36;101103.69;4978559;28;20453;-73
2022/06/14 00:08:49;;;;;;;15.03;9.57;;;;;;;37.68;43.95;101107.75;4978304;28;20433;-70
2022/06/14 00:11:21;;;;;;;25.83;11.97;;;;;;;37.48;44.45;101109.72;4991878;28;20436;-74
2022/06/14 00:13:48;;;;;;;21.20;9.40;;;;;;;37.59;43.94;101111.16;4992316;28;20426;-72
2022/06/14 00:16:15;;;;;;;21.30;10.00;;;;;;;37.46;43.96;101111.13;4978162;28;20420;-72
2022/06/14 00:18:42;;;;;;;17.63;10.50;;;;;;;37.49;43.95;101113.22;4978048;28;20923;-70
2022/06/14 00:21:08;;;;;;;16.47;9.17;;;;;;;37.62;43.81;101105.13;4978021;28;20918;-72
2022/06/14 00:23:34;;;;;;;15.03;8.70;;;;;;;37.65;43.76;101101.03;4976825;28;20425;-73
2022/06/14 00:26:02;;;;;;;13.90;9.20;;;;;;;37.75;43.49;101100.03;4995596;28;20413;-74
2022/06/14 00:28:31;;;;;;;17.67;8.50;;;;;;;37.75;43.20;101106.28;4995726;28;20425;-74
2022/06/14 00:31:00;;;;;;;21.90;8.23;;;;;;;37.74;43.26;101112.78;4977421;28;20449;-74
2022/06/14 00:33:26;;;;;;;13.00;8.40;;;;;;;37.81;43.33;101107.00;4976612;28;20476;-74
2022/06/14 00:36:05;;;;;;;28.33;9.13;;;;;;;37.83;43.41;101102.91;4976367;28;20476;-73
2022/06/14 00:38:33;;;;;;;13.77;8.17;;;;;;;37.71;43.47;101089.03;4976183;28;20425;-74
2022/06/14 00:41:00;;;;;;;32.03;11.83;;;;;;;37.75;43.52;101081.91;4976178;28;20453;-74
2022/06/14 00:43:28;;;;;;;21.30;10.30;;;;;;;37.63;44.20;101079.69;4975979;28;20441;-74
2022/06/14 00:46:05;;;;;;;25.80;12.60;;;;;;;37.69;43.88;101082.28;4976307;28;20778;-75
2022/06/14 00:48:34;;;;;;;17.20;10.63;;;;;;;37.74;43.63;101080.28;4976388;28;20956;-74
2022/06/14 00:51:39;;;;;;;18.43;10.13;;;;;;;37.49;43.78;101075.34;4978160;28;20448;-73
2022/06/14 00:54:22;;;;;;;17.03;8.60;;;;;;;37.68;44.05;101069.84;4916465;29;20465;-74
2022/06/14 00:56:56;;;;;;;21.80;9.10;;;;;;;37.36;44.45;101063.41;4969253;28;20536;-73
2022/06/14 00:59:46;;;;;;;26.47;10.30;;;;;;;37.50;44.14;101056.09;4942658;28;20481;-72
2022/06/14 01:02:35;;;;;;;24.03;9.90;;;;;;;37.43;44.21;101044.84;4958458;28;20433;-73
2022/06/14 01:05:10;;;;;;;27.50;12.13;;;;;;;37.44;44.33;101043.75;4958327;28;20437;-72
2022/06/14 01:07:41;;;;;;;15.37;8.67;;;;;;;37.36;44.20;101023.59;4958280;28;20939;-74
2022/06/14 01:10:10;;;;;;;13.60;10.13;;;;;;;37.19;44.70;101009.00;4975858;28;20469;-74
2022/06/14 01:12:43;;;;;;;21.13;9.60;;;;;;;37.12;44.86;101002.09;4958207;28;20429;-74
2022/06/14 01:15:21;;;;;;;23.30;9.37;;;;;;;37.32;45.17;100986.59;4957948;28;20458;-72
2022/06/14 01:17:51;;;;;;;14.07;8.23;;;;;;;37.11;45.35;100989.66;4958111;28;20508;-72
2022/06/14 01:20:22;;;;;;;15.37;8.77;;;;;;;37.29;44.90;100981.78;4958026;28;20468;-72
2022/06/14 01:22:50;;;;;;;18.37;9.63;;;;;;;37.19;44.19;100977.34;4958109;28;20454;-74
2022/06/14 01:25:18;;;;;;;19.97;9.43;;;;;;;37.23;44.65;100972.16;4975558;28;20395;-74
2022/06/14 01:27:45;;;;;;;25.50;10.10;;;;;;;37.23;44.51;100974.88;4957966;28;20852;-74
2022/06/14 01:30:19;;;;;;;14.63;9.63;;;;;;;37.33;44.38;100977.41;4957898;28;20967;-74
2022/06/14 01:32:47;;;;;;;17.80;7.97;;;;;;;37.22;44.44;100995.72;4957872;28;20432;-74
2022/06/14 01:35:19;;;;;;;22.40;12.47;;;;;;;37.34;44.11;101006.09;4975209;28;20468;-73
2022/06/14 01:37:50;;;;;;;29.00;9.10;;;;;;;37.32;43.93;100995.53;4957784;28;20477;-74
2022/06/14 01:40:18;;;;;;;17.90;11.03;;;;;;;37.42;44.23;101002.69;4957742;28;20434;-73
2022/06/14 01:43:06;;;;;;;13.33;7.47;;;;;;;37.47;43.75;100988.25;4957691;28;20526;-74
2022/06/14 01:45:44;;;;;;;19.03;10.27;;;;;;;37.42;44.23;100994.56;4974982;28;20406;-74
2022/06/14 01:48:25;;;;;;;21.17;9.00;;;;;;;37.41;44.05;101000.28;4957515;28;20432;-73
2022/06/14 01:54:00;;;;;;;17.03;9.63;;;;;;;37.29;44.56;101000.72;4955787;28;20433;-73
2022/06/14 01:56:41;;;;;;;21.53;10.50;;;;;;;37.43;44.39;101015.09;4957151;28;20474;-74
2022/06/14 01:59:35;;;;;;;15.27;8.00;;;;;;;37.17;44.68;101011.22;4973301;28;20476;-73
2022/06/14 02:02:05;;;;;;;22.40;9.67;;;;;;;36.84;45.58;101019.31;4947165;28;20430;-73
2022/06/14 02:04:54;;;;;;;18.73;9.50;;;;;;;37.10;44.97;101017.03;4957226;28;20462;-73
2022/06/14 02:07:29;;;;;;;15.33;8.57;;;;;;;37.11;44.73;101014.00;4957124;28;20485;-73
2022/06/14 02:10:08;;;;;;;20.33;10.70;;;;;;;37.13;45.23;101013.72;4957094;28;21013;-74
2022/06/14 02:12:52;;;;;;;13.93;9.40;;;;;;;37.21;44.81;101006.84;4973234;28;20512;-74
2022/06/14 02:15:37;;;;;;;22.83;8.60;;;;;;;37.25;44.50;101007.81;4956924;28;20544;-74
2022/06/14 02:18:13;;;;;;;14.53;8.90;;;;;;;37.15;44.53;101003.41;4956885;28;20881;-74
2022/06/14 02:21:00;;;;;;;14.10;8.40;;;;;;;37.24;44.02;101006.22;4956997;28;20453;-73
2022/06/14 02:23:30;;;;;;;18.73;8.40;;;;;;;37.06;44.95;101005.97;4956842;28;20437;-73
2022/06/14 02:26:04;;;;;;;18.43;8.87;;;;;;;37.25;44.60;101005.13;4956914;28;20431;-74
2022/06/14 02:28:51;;;;;;;13.43;9.53;;;;;;;36.80;45.01;100997.47;4956803;28;20522;-73
2022/06/14 02:31:31;;;;;;;19.07;7.50;;;;;;;36.83;45.08;101001.47;4956720;28;20434;-74
2022/06/14 02:34:08;;;;;;;14.30;8.47;;;;;;;36.86;44.85;100990.06;4974238;28;20543;-74
2022/06/14 02:36:44;;;;;;;17.17;8.93;;;;;;;37.23;44.02;100985.69;4956631;28;20436;-74
2022/06/14 02:39:29;;;;;;;14.07;10.33;;;;;;;37.28;43.72;100974.78;4956966;28;20457;-74
2022/06/14 02:42:01;;;;;;;11.37;8.70;;;;;;;37.02;44.38;100983.34;4956609;28;20496;-74
2022/06/14 02:44:46;;;;;;;11.87;7.80;;;;;;;37.13;44.21;100973.94;4956581;28;21041;-74
2022/06/14 02:47:37;;;;;;;19.13;8.47;;;;;;;36.95;44.88;100966.69;4956134;28;20434;-74
2022/06/14 02:50:29;;;;;;;15.40;9.00;;;;;;;37.20;44.66;100978.16;4956554;28;20430;-74
2022/06/14 02:53:14;;;;;;;15.10;10.73;;;;;;;37.36;44.54;100979.53;4965329;28;20436;-74
2022/06/14 02:55:48;;;;;;;19.77;9.80;;;;;;;37.07;45.25;100975.13;4975495;28;20485;-73
2022/06/14 02:58:32;;;;;;;18.63;9.97;;;;;;;37.23;44.53;100978.38;4975983;28;20791;-74
2022/06/14 03:01:07;;;;;;;17.47;10.00;;;;;;;37.12;44.96;100982.34;4975638;28;20999;-74
2022/06/14 03:03:49;;;;;;;17.00;9.50;;;;;;;37.16;44.84;100982.56;4975651;28;20413;-74
2022/06/14 03:06:36;;;;;;;28.10;11.80;;;;;;;37.06;44.66;100986.25;4975810;28;20524;-74
2022/06/14 03:09:20;;;;;;;13.70;9.00;;;;;;;36.84;45.18;100984.16;4975906;28;20429;-74
2022/06/14 03:12:09;;;;;;;14.53;8.70;;;;;;;36.74;45.93;100966.22;4975688;28;20448;-74
2022/06/14 03:14:56;;;;;;;20.03;10.40;;;;;;;36.93;45.91;100966.19;4975479;28;20552;-74
2022/06/14 03:17:47;;;;;;;18.27;11.30;;;;;;;36.98;45.85;100966.09;4975537;28;20512;-73
2022/06/14 03:20:38;;;;;;;15.50;9.73;;;;;;;36.92;46.10;100956.47;4975511;28;20504;-73
2022/06/14 03:23:22;;;;;;;18.73;9.17;;;;;;;36.80;46.13;100964.22;4975582;28;20429;-73
2022/06/14 03:26:28;;;;;;;16.17;9.70;;;;;;;37.12;45.68;100949.91;4993326;28;20401;-73
2022/06/14 03:29:05;;;;;;;18.03;10.73;;;;;;;36.82;46.06;100965.53;4975451;28;20456;-73
2022/06/14 03:32:00;;;;;;;17.67;11.20;;;;;;;36.93;45.70;100966.19;4975320;28;20448;-73
2022/06/14 03:34:36;;;;;;;17.90;9.23;;;;;;;36.95;45.55;100961.28;4975232;28;20842;-74
2022/06/14 03:37:03;;;;;;;24.23;10.17;;;;;;;37.12;45.59;100968.84;4975490;28;20458;-73
2022/06/14 03:39:51;;;;;;;16.53;9.63;;;;;;;37.13;45.36;100971.22;4975233;28;20452;-73
2022/06/14 03:42:17;;;;;;;22.60;8.80;;;;;;;37.31;44.75;100979.56;4974876;28;20428;-72
2022/06/14 03:44:43;;;;;;;16.17;8.80;;;;;;;37.04;45.33;100978.44;4975480;28;20448;-72
2022/06/14 03:47:09;;;;;;;22.20;11.17;;;;;;;36.89;45.62;100981.38;4975373;28;20425;-73
2022/06/14 03:49:38;;;;;;;20.33;8.90;;;;;;;36.80;45.68;100978.53;4975296;28;20525;-71
2022/06/14 03:52:04;;;;;;;16.37;8.27;;;;;;;36.85;45.70;100972.25;4975124;28;20513;-72
2022/06/14 03:55:07;;;;;;;16.00;8.30;;;;;;;36.98;44.83;100968.00;4975223;28;20461;-73
2022/06/14 03:57:52;;;;;;;16.80;11.00;;;;;;;36.93;45.09;100963.47;4960819;28;20433;-72
2022/06/14 04:01:07;;;;;;;14.00;10.57;;;;;;;36.97;45.35;100958.31;4978990;28;21083;-73
2022/06/14 04:03:56;;;;;;;19.27;9.40;;;;;;;36.81;45.54;100946.91;4968930;28;20433;-73
2022/06/14 04:06:40;;;;;;;14.17;10.23;;;;;;;36.94;45.78;100953.47;4978650;28;20417;-72
2022/06/14 04:09:22;;;;;;;18.40;10.27;;;;;;;36.92;45.84;100950.28;4978650;28;20516;-72
2022/06/14 04:12:01;;;;;;;19.77;9.60;;;;;;;36.91;45.50;100948.66;4996491;28;20409;-72
2022/06/14 04:14:45;;;;;;;17.93;9.67;;;;;;;37.02;45.57;100945.50;4996233;28;20464;-72
2022/06/14 04:17:29;;;;;;;22.53;10.53;;;;;;;37.01;45.94;100943.88;4978392;28;20911;-72
2022/06/14 04:20:01;;;;;;;21.33;10.37;;;;;;;37.03;45.41;100957.91;4978427;28;20432;-72
2022/06/14 04:22:38;;;;;;;22.33;8.60;;;;;;;37.05;45.64;100953.00;4978403;28;20429;-72
2022/06/14 04:25:37;;;;;;;15.10;11.20;;;;;;;37.03;45.83;100946.28;4978358;28;20424;-72
2022/06/14 04:28:12;;;;;;;14.40;9.80;;;;;;;37.12;44.78;100934.47;4978286;28;20421;-73
2022/06/14 04:30:41;;;;;;;20.63;10.80;;;;;;;37.25;44.81;100934.78;4978520;28;20437;-73
2022/06/14 04:33:41;;;;;;;29.03;13.70;;;;;;;37.28;45.35;100934.19;4996052;28;20417;-73
2022/06/14 04:36:15;;;;;;;20.30;11.30;;;;;;;37.29;45.18;100924.97;4978122;28;20456;-73
2022/06/14 04:38:47;;;;;;;31.20;11.33;;;;;;;37.28;44.33;100936.91;4977928;28;20930;-74
2022/06/14 04:41:30;;;;;;;16.83;11.90;;;;;;;37.38;44.63;100945.66;4978048;28;20425;-74
2022/06/14 04:44:02;;;;;;;28.93;11.00;;;;;;;37.17;45.43;100941.69;4977994;28;20467;-72
2022/06/14 04:47:04;;;;;;;31.20;11.20;;;;;;;36.93;45.86;100941.06;4978051;28;20452;-72
2022/06/14 04:49:48;;;;;;;25.60;10.23;;;;;;;36.94;46.14;100942.66;4959546;28;20456;-71
2022/06/14 04:52:21;;;;;;;17.97;10.40;;;;;;;36.89;46.15;100945.44;4977961;28;20433;-73
2022/06/14 04:55:05;;;;;;;13.13;10.17;;;;;;;36.88;45.76;100952.75;4977591;28;20539;-74
2022/06/14 04:57:57;;;;;;;23.13;12.33;;;;;;;36.78;46.35;100961.81;4977942;28;20957;-73
2022/06/14 05:00:30;;;;;;;18.60;10.73;;;;;;;36.58;46.79;100952.13;4995627;28;20774;-73
2022/06/14 05:03:11;;;;;;;14.40;8.93;;;;;;;36.70;46.02;100954.38;4977608;28;20436;-73
2022/06/14 05:05:50;;;;;;;16.23;8.97;;;;;;;36.82;46.04;100948.50;4995599;28;20406;-73
2022/06/14 05:08:31;;;;;;;22.13;10.80;;;;;;;36.89;45.90;100948.94;4977557;28;20512;-72
2022/06/14 05:11:12;;;;;;;17.27;10.27;;;;;;;37.09;45.38;100939.69;4977025;28;20421;-72
2022/06/14 05:14:05;;;;;;;23.00;15.20;;;;;;;37.10;45.76;100938.59;4977651;28;20432;-73
2022/06/14 05:16:56;;;;;;;13.27;11.70;;;;;;;37.08;45.41;100938.91;4965745;28;20433;-73
2022/06/14 05:19:36;;;;;;;20.00;14.10;;;;;;;36.88;45.93;100947.34;4977360;28;20433;-73
2022/06/14 05:22:24;;;;;;;28.13;17.90;;;;;;;37.09;45.69;100954.00;4995081;28;20953;-74
2022/06/14 05:24:50;;;;;;;24.83;14.83;;;;;;;36.98;45.68;100949.09;4995096;28;20820;-73
2022/06/14 05:27:41;;;;;;;17.30;12.57;;;;;;;36.93;45.70;100949.97;4977229;28;20429;-73
2022/06/14 05:30:33;;;;;;;23.33;14.60;;;;;;;36.65;46.60;100945.53;4977361;28;20445;-73
2022/06/14 05:33:22;;;;;;;24.33;14.53;;;;;;;36.56;46.68;100937.31;4977167;28;20461;-79
2022/06/14 05:35:54;;;;;;;28.57;13.90;;;;;;;36.77;45.97;100937.75;4977091;28;20465;-72
2022/06/14 05:38:36;;;;;;;20.93;14.63;;;;;;;36.57;46.59;100939.72;4977266;28;20463;-71
2022/06/14 05:41:07;;;;;;;27.50;13.10;;;;;;;36.72;46.79;100940.59;4994930;28;20517;-73
2022/06/14 05:43:50;;;;;;;21.57;13.40;;;;;;;36.75;46.66;100948.09;4976466;28;20448;-74
2022/06/14 05:46:19;;;;;;;17.67;12.50;;;;;;;36.63;47.19;100959.34;4992160;28;20946;-73
2022/06/14 05:48:52;;;;;;;25.33;16.73;;;;;;;36.44;46.99;100948.56;4976626;28;20452;-71
2022/06/14 05:51:29;;;;;;;21.03;13.43;;;;;;;36.65;46.81;100946.38;4976249;28;20422;-71
2022/06/14 05:54:27;;;;;;;21.50;12.60;;;;;;;36.69;46.30;100943.84;4975584;28;21003;-72
2022/06/14 05:57:02;;;;;;;22.87;16.03;;;;;;;36.78;46.16;100934.78;4975831;28;21030;-72
2022/06/14 05:59:34;;;;;;;29.23;18.10;;;;;;;36.40;47.56;100947.56;4993651;28;20405;-73
2022/06/14 06:02:20;;;;;;;28.10;16.30;;;;;;;36.17;47.70;100948.41;4975873;28;20985;-77
2022/06/14 06:05:10;;;;;;;35.30;17.07;;;;;;;36.52;47.41;100969.53;4975716;28;20475;-80
2022/06/14 06:07:42;;;;;;;27.87;17.57;;;;;;;36.66;46.83;100975.00;4975259;28;20956;-77
2022/06/14 06:10:14;;;;;;;26.37;17.57;;;;;;;36.70;46.51;100975.19;4975795;28;20430;-76
2022/06/14 06:12:49;;;;;;;25.13;19.20;;;;;;;36.87;45.97;100983.59;4975362;28;20499;-76
2022/06/14 06:15:30;;;;;;;22.53;15.40;;;;;;;36.70;46.29;100991.41;4975082;28;20932;-77
2022/06/14 06:18:03;;;;;;;25.10;16.93;;;;;;;36.76;46.14;100992.94;4974505;28;20449;-72
2022/06/14 06:20:35;;;;;;;25.60;16.90;;;;;;;36.69;46.90;101000.63;4975214;28;20437;-76
2022/06/14 06:23:27;;;;;;;25.90;16.20;;;;;;;36.57;47.09;101004.56;4990665;28;20418;-70
2022/06/14 06:25:55;;;;;;;24.90;17.37;;;;;;;36.55;46.96;101011.38;4968241;28;20432;-73
2022/06/14 06:28:31;;;;;;;28.80;19.20;;;;;;;36.54;46.51;101025.97;4975387;28;20476;-73
2022/06/14 06:31:34;;;;;;;22.43;16.17;;;;;;;36.56;47.27;101021.88;4993042;28;20405;-73
2022/06/14 06:34:04;;;;;;;28.63;15.67;;;;;;;36.72;46.86;101032.47;4894616;29;20445;-73
2022/06/14 06:36:44;;;;;;;27.83;17.97;;;;;;;36.66;46.93;101045.25;4959888;28;20437;-72
2022/06/14 06:39:40;;;;;;;24.20;17.10;;;;;;;36.90;46.10;101047.91;4975267;28;20461;-72
2022/06/14 06:42:26;;;;;;;34.43;20.10;;;;;;;37.13;46.06;101044.25;4992875;28;20433;-75
2022/06/14 06:45:08;;;;;;;23.00;18.73;;;;;;;37.05;46.02;101042.25;4975109;28;20449;-73
2022/06/14 06:47:40;;;;;;;37.83;24.40;;;;;;;36.68;46.32;101047.66;4981001;28;20540;-72
2022/06/14 06:50:26;;;;;;;30.60;20.70;;;;;;;36.78;46.93;101052.94;4979420;28;20520;-74
2022/06/14 06:53:05;;;;;;;30.50;19.40;;;;;;;36.99;45.95;101054.25;4998755;28;20412;-73
2022/06/14 06:55:53;;;;;;;33.10;18.30;;;;;;;37.15;45.68;101054.00;4980853;28;20477;-70
2022/06/14 06:58:52;;;;;;;41.53;19.80;;;;;;;37.17;45.78;101054.50;4984263;28;20962;-80
2022/06/14 07:01:38;;;;;;;24.70;18.27;;;;;;;37.15;45.45;101057.50;4976829;28;20421;-73
2022/06/14 07:05:14;;;;;;;28.03;18.93;;;;;;;37.15;46.05;101064.81;4977149;28;20945;-73
2022/06/14 07:07:18;;;;;;;28.93;15.30;;;;;;;37.23;45.64;101062.22;4976765;28;20421;-72
2022/06/14 07:09:51;;;;;;;24.90;15.50;;;;;;;37.31;45.83;101060.75;4985083;28;20425;-77
2022/06/14 07:12:23;;;;;;;23.03;17.90;;;;;;;37.05;45.96;101071.19;4983484;28;20420;-76
2022/06/14 07:15:16;;;;;;;28.90;13.30;;;;;;;37.17;45.86;101078.84;4994935;28;20460;-76
2022/06/14 07:18:08;;;;;;;25.30;16.70;;;;;;;37.37;45.56;101067.69;4935725;28;20472;-73
2022/06/14 07:21:00;;;;;;;31.33;18.03;;;;;;;37.43;45.41;101077.34;4975360;28;20520;-73
2022/06/14 07:23:51;;;;;;;32.53;15.60;;;;;;;37.24;45.69;101079.25;4985765;28;20911;-73
2022/06/14 07:26:44;;;;;;;24.57;13.33;;;;;;;36.94;46.18;101084.06;4994865;28;20424;-73
2022/06/14 07:29:36;;;;;;;19.10;11.13;;;;;;;37.19;44.78;101085.56;4988426;28;20953;-73
2022/06/14 07:32:14;;;;;;;37.83;13.70;;;;;;;37.23;45.80;101091.97;5006210;28;20977;-72
2022/06/14 07:34:42;;;;;;;19.13;12.37;;;;;;;37.33;45.09;101088.31;4998418;28;20471;-73
2022/06/14 07:37:26;;;;;;;17.83;11.47;;;;;;;37.08;45.42;101093.06;4987731;28;20424;-73
2022/06/14 07:40:28;;;;;;;32.37;12.47;;;;;;;37.04;44.67;101097.44;5001973;28;20979;-73
2022/06/14 07:43:16;;;;;;;18.20;10.43;;;;;;;37.23;45.11;101093.88;4984812;28;20423;-72
2022/06/14 07:45:46;;;;;;;28.80;14.47;;;;;;;37.12;45.23;101107.56;4986744;28;20432;-73
2022/06/14 07:48:22;;;;;;;19.33;12.27;;;;;;;37.11;46.04;101115.97;4987759;28;20431;-73
2022/06/14 07:51:21;;;;;;;26.30;14.73;;;;;;;36.87;46.27;101121.47;5016316;28;20412;-72
2022/06/14 07:54:09;;;;;;;32.63;11.90;;;;;;;37.02;45.86;101123.97;4991982;28;20428;-74
2022/06/14 07:56:45;;;;;;;15.70;11.47;;;;;;;37.28;45.20;101123.56;4997329;28;20499;-73
